sensor_id;sensor_type;location;lat;lon;timestamp;temperature;humidity
5919;DHT22;2985;48.142;16.344;2022-07-29T00:04:06;22.20;84.90
5919;DHT22;2985;48.142;16.344;2022-07-29T00:08:57;22.20;84.80
5919;DHT22;2985;48.142;16.344;2022-07-29T00:13:48;22.20;85.00
5919;DHT22;2985;48.142;16.344;2022-07-29T00:18:39;22.10;85.40
5919;DHT22;2985;48.142;16.344;2022-07-29T00:23:29;22.00;85.50
5919;DHT22;2985;48.142;16.344;2022-07-29T00:28:20;22.00;85.90
5919;DHT22;2985;48.142;16.344;2022-07-29T00:33:11;22.00;86.20
5919;DHT22;2985;48.142;16.344;2022-07-29T00:38:02;22.00;86.50
5919;DHT22;2985;48.142;16.344;2022-07-29T00:42:53;21.90;87.00
5919;DHT22;2985;48.142;16.344;2022-07-29T00:47:44;21.80;87.10
5919;DHT22;2985;48.142;16.344;2022-07-29T00:52:36;21.70;87.40
5919;DHT22;2985;48.142;16.344;2022-07-29T00:57:27;21.80;88.10
5919;DHT22;2985;48.142;16.344;2022-07-29T01:02:18;21.70;88.10
5919;DHT22;2985;48.142;16.344;2022-07-29T01:07:09;21.60;88.50
5919;DHT22;2985;48.142;16.344;2022-07-29T01:12:01;21.60;88.70
5919;DHT22;2985;48.142;16.344;2022-07-29T01:16:57;21.50;89.00
5919;DHT22;2985;48.142;16.344;2022-07-29T01:21:55;21.60;89.60
5919;DHT22;2985;48.142;16.344;2022-07-29T01:26:52;21.50;90.00
5919;DHT22;2985;48.142;16.344;2022-07-29T01:31:48;21.50;90.00
5919;DHT22;2985;48.142;16.344;2022-07-29T01:36:48;21.50;90.30
5919;DHT22;2985;48.142;16.344;2022-07-29T01:41:55;21.50;90.60
5919;DHT22;2985;48.142;16.344;2022-07-29T01:46:55;21.40;90.70
5919;DHT22;2985;48.142;16.344;2022-07-29T01:51:52;21.40;90.90
5919;DHT22;2985;48.142;16.344;2022-07-29T01:56:48;21.40;91.20
5919;DHT22;2985;48.142;16.344;2022-07-29T02:01:41;21.30;91.50
5919;DHT22;2985;48.142;16.344;2022-07-29T02:06:35;21.20;91.60
5919;DHT22;2985;48.142;16.344;2022-07-29T02:11:29;21.20;91.90
5919;DHT22;2985;48.142;16.344;2022-07-29T02:16:22;21.10;92.10
5919;DHT22;2985;48.142;16.344;2022-07-29T02:21:16;21.10;92.40
5919;DHT22;2985;48.142;16.344;2022-07-29T02:26:10;21.10;92.50
5919;DHT22;2985;48.142;16.344;2022-07-29T02:31:02;21.10;92.70
5919;DHT22;2985;48.142;16.344;2022-07-29T02:35:55;21.00;94.40
5919;DHT22;2985;48.142;16.344;2022-07-29T02:40:47;21.00;94.10
5919;DHT22;2985;48.142;16.344;2022-07-29T02:45:38;20.90;94.60
5919;DHT22;2985;48.142;16.344;2022-07-29T02:50:36;20.70;94.90
5919;DHT22;2985;48.142;16.344;2022-07-29T02:55:34;20.80;94.80
5919;DHT22;2985;48.142;16.344;2022-07-29T03:00:29;20.80;95.20
5919;DHT22;2985;48.142;16.344;2022-07-29T03:05:20;20.70;95.00
5919;DHT22;2985;48.142;16.344;2022-07-29T03:10:13;20.70;95.10
5919;DHT22;2985;48.142;16.344;2022-07-29T03:15:04;20.70;95.60
5919;DHT22;2985;48.142;16.344;2022-07-29T03:19:55;20.70;95.60
5919;DHT22;2985;48.142;16.344;2022-07-29T03:24:46;20.70;96.20
5919;DHT22;2985;48.142;16.344;2022-07-29T03:29:37;20.60;96.10
5919;DHT22;2985;48.142;16.344;2022-07-29T03:34:28;20.60;97.60
5919;DHT22;2985;48.142;16.344;2022-07-29T03:39:21;20.50;97.40
5919;DHT22;2985;48.142;16.344;2022-07-29T03:44:14;20.30;98.00
5919;DHT22;2985;48.142;16.344;2022-07-29T03:49:06;20.20;98.70
5919;DHT22;2985;48.142;16.344;2022-07-29T03:53:58;20.30;98.00
5919;DHT22;2985;48.142;16.344;2022-07-29T03:58:53;20.30;98.10
5919;DHT22;2985;48.142;16.344;2022-07-29T04:03:45;20.40;98.20
5919;DHT22;2985;48.142;16.344;2022-07-29T04:08:36;20.20;99.50
5919;DHT22;2985;48.142;16.344;2022-07-29T04:13:27;20.40;98.80
5919;DHT22;2985;48.142;16.344;2022-07-29T04:18:18;20.50;98.90
5919;DHT22;2985;48.142;16.344;2022-07-29T04:23:09;20.50;99.30
5919;DHT22;2985;48.142;16.344;2022-07-29T04:27:59;20.90;98.50
5919;DHT22;2985;48.142;16.344;2022-07-29T04:32:50;21.10;98.60
5919;DHT22;2985;48.142;16.344;2022-07-29T04:37:41;21.30;98.10
5919;DHT22;2985;48.142;16.344;2022-07-29T04:42:32;21.40;97.80
5919;DHT22;2985;48.142;16.344;2022-07-29T04:47:22;21.40;97.80
5919;DHT22;2985;48.142;16.344;2022-07-29T04:52:13;21.60;97.80
5919;DHT22;2985;48.142;16.344;2022-07-29T04:57:04;21.80;97.60
5919;DHT22;2985;48.142;16.344;2022-07-29T05:01:54;21.90;97.40
5919;DHT22;2985;48.142;16.344;2022-07-29T05:06:45;22.30;97.00
5919;DHT22;2985;48.142;16.344;2022-07-29T05:11:36;22.50;96.60
5919;DHT22;2985;48.142;16.344;2022-07-29T05:16:27;21.90;96.80
5919;DHT22;2985;48.142;16.344;2022-07-29T05:21:18;21.50;98.70
5919;DHT22;2985;48.142;16.344;2022-07-29T05:26:09;21.60;98.50
5919;DHT22;2985;48.142;16.344;2022-07-29T05:30:59;21.70;98.50
5919;DHT22;2985;48.142;16.344;2022-07-29T05:35:50;22.00;98.20
5919;DHT22;2985;48.142;16.344;2022-07-29T05:40:41;22.50;97.20
5919;DHT22;2985;48.142;16.344;2022-07-29T05:45:31;23.00;96.10
5919;DHT22;2985;48.142;16.344;2022-07-29T05:50:22;23.00;95.50
5919;DHT22;2985;48.142;16.344;2022-07-29T05:55:13;23.50;95.20
5919;DHT22;2985;48.142;16.344;2022-07-29T06:00:04;23.20;94.40
5919;DHT22;2985;48.142;16.344;2022-07-29T06:04:55;23.40;93.70
5919;DHT22;2985;48.142;16.344;2022-07-29T06:09:46;23.30;93.60
5919;DHT22;2985;48.142;16.344;2022-07-29T06:14:36;23.60;94.00
5919;DHT22;2985;48.142;16.344;2022-07-29T06:19:29;23.80;93.60
5919;DHT22;2985;48.142;16.344;2022-07-29T06:24:20;23.40;93.90
5919;DHT22;2985;48.142;16.344;2022-07-29T06:29:11;23.40;93.80
5919;DHT22;2985;48.142;16.344;2022-07-29T06:34:02;23.60;93.90
5919;DHT22;2985;48.142;16.344;2022-07-29T06:38:53;23.90;93.50
5919;DHT22;2985;48.142;16.344;2022-07-29T06:43:44;23.90;93.30
5919;DHT22;2985;48.142;16.344;2022-07-29T06:48:36;23.90;93.30
5919;DHT22;2985;48.142;16.344;2022-07-29T06:53:28;24.10;93.20
5919;DHT22;2985;48.142;16.344;2022-07-29T06:58:19;24.20;93.00
5919;DHT22;2985;48.142;16.344;2022-07-29T07:03:11;23.90;93.30
5919;DHT22;2985;48.142;16.344;2022-07-29T07:08:02;24.00;93.00
5919;DHT22;2985;48.142;16.344;2022-07-29T07:12:53;23.80;93.10
5919;DHT22;2985;48.142;16.344;2022-07-29T07:17:43;24.00;92.90
5919;DHT22;2985;48.142;16.344;2022-07-29T07:22:34;24.10;92.80
5919;DHT22;2985;48.142;16.344;2022-07-29T07:27:25;24.00;92.90
5919;DHT22;2985;48.142;16.344;2022-07-29T07:32:17;24.00;92.90
5919;DHT22;2985;48.142;16.344;2022-07-29T07:37:07;24.50;92.70
5919;DHT22;2985;48.142;16.344;2022-07-29T07:41:59;24.50;92.70
5919;DHT22;2985;48.142;16.344;2022-07-29T07:46:49;24.80;92.50
5919;DHT22;2985;48.142;16.344;2022-07-29T07:51:40;24.80;91.90
5919;DHT22;2985;48.142;16.344;2022-07-29T07:56:31;24.40;92.40
5919;DHT22;2985;48.142;16.344;2022-07-29T08:01:22;24.70;92.50
5919;DHT22;2985;48.142;16.344;2022-07-29T08:06:13;24.90;91.70
5919;DHT22;2985;48.142;16.344;2022-07-29T08:11:04;25.90;91.70
5919;DHT22;2985;48.142;16.344;2022-07-29T08:15:55;26.00;90.20
5919;DHT22;2985;48.142;16.344;2022-07-29T08:20:51;26.00;89.80
5919;DHT22;2985;48.142;16.344;2022-07-29T08:25:41;26.50;90.10
5919;DHT22;2985;48.142;16.344;2022-07-29T08:30:33;26.40;88.20
5919;DHT22;2985;48.142;16.344;2022-07-29T08:35:24;26.20;87.50
5919;DHT22;2985;48.142;16.344;2022-07-29T08:40:15;26.20;87.20
5919;DHT22;2985;48.142;16.344;2022-07-29T08:45:07;26.70;88.20
5919;DHT22;2985;48.142;16.344;2022-07-29T08:49:57;26.60;86.30
5919;DHT22;2985;48.142;16.344;2022-07-29T08:54:49;26.50;86.80
5919;DHT22;2985;48.142;16.344;2022-07-29T08:59:41;27.10;85.10
5919;DHT22;2985;48.142;16.344;2022-07-29T09:04:34;27.20;85.40
5919;DHT22;2985;48.142;16.344;2022-07-29T09:09:26;27.30;84.80
5919;DHT22;2985;48.142;16.344;2022-07-29T09:14:17;26.70;85.80
5919;DHT22;2985;48.142;16.344;2022-07-29T09:19:23;26.90;85.90
5919;DHT22;2985;48.142;16.344;2022-07-29T09:24:13;27.60;85.50
5919;DHT22;2985;48.142;16.344;2022-07-29T09:29:13;27.40;84.20
5919;DHT22;2985;48.142;16.344;2022-07-29T09:34:05;27.20;84.30
5919;DHT22;2985;48.142;16.344;2022-07-29T09:38:58;27.40;83.90
5919;DHT22;2985;48.142;16.344;2022-07-29T09:43:57;27.50;84.10
5919;DHT22;2985;48.142;16.344;2022-07-29T09:49:11;27.70;83.60
5919;DHT22;2985;48.142;16.344;2022-07-29T09:54:25;27.30;82.10
5919;DHT22;2985;48.142;16.344;2022-07-29T09:59:16;27.60;83.20
5919;DHT22;2985;48.142;16.344;2022-07-29T10:04:07;27.80;82.40
5919;DHT22;2985;48.142;16.344;2022-07-29T10:09:08;28.50;82.00
5919;DHT22;2985;48.142;16.344;2022-07-29T10:14:02;27.90;81.00
5919;DHT22;2985;48.142;16.344;2022-07-29T10:18:53;28.70;80.30
5919;DHT22;2985;48.142;16.344;2022-07-29T10:23:44;29.20;79.40
5919;DHT22;2985;48.142;16.344;2022-07-29T10:28:35;29.50;79.40
5919;DHT22;2985;48.142;16.344;2022-07-29T10:43:28;29.00;77.50
5919;DHT22;2985;48.142;16.344;2022-07-29T10:48:20;28.90;76.80
5919;DHT22;2985;48.142;16.344;2022-07-29T10:53:10;29.10;77.30
5919;DHT22;2985;48.142;16.344;2022-07-29T10:58:30;28.80;77.00
5919;DHT22;2985;48.142;16.344;2022-07-29T11:03:44;28.80;76.60
5919;DHT22;2985;48.142;16.344;2022-07-29T11:08:35;29.20;77.60
5919;DHT22;2985;48.142;16.344;2022-07-29T11:18:32;29.10;77.20
5919;DHT22;2985;48.142;16.344;2022-07-29T11:23:32;29.30;76.50
5919;DHT22;2985;48.142;16.344;2022-07-29T11:28:26;29.40;76.10
5919;DHT22;2985;48.142;16.344;2022-07-29T11:33:32;29.40;76.50
5919;DHT22;2985;48.142;16.344;2022-07-29T11:38:25;29.60;75.80
5919;DHT22;2985;48.142;16.344;2022-07-29T11:43:49;29.80;76.10
5919;DHT22;2985;48.142;16.344;2022-07-29T11:48:42;30.00;75.50
5919;DHT22;2985;48.142;16.344;2022-07-29T11:53:34;29.90;75.50
5919;DHT22;2985;48.142;16.344;2022-07-29T11:58:27;29.90;75.20
5919;DHT22;2985;48.142;16.344;2022-07-29T12:03:29;30.00;74.60
5919;DHT22;2985;48.142;16.344;2022-07-29T12:08:21;29.60;73.80
5919;DHT22;2985;48.142;16.344;2022-07-29T12:13:14;29.80;74.50
5919;DHT22;2985;48.142;16.344;2022-07-29T12:18:14;30.00;74.30
5919;DHT22;2985;48.142;16.344;2022-07-29T12:23:07;30.20;73.70
5919;DHT22;2985;48.142;16.344;2022-07-29T12:28:12;30.50;73.30
5919;DHT22;2985;48.142;16.344;2022-07-29T12:33:11;30.50;73.30
5919;DHT22;2985;48.142;16.344;2022-07-29T12:38:02;30.30;72.90
5919;DHT22;2985;48.142;16.344;2022-07-29T12:47:58;30.40;72.20
5919;DHT22;2985;48.142;16.344;2022-07-29T12:52:48;29.90;72.10
5919;DHT22;2985;48.142;16.344;2022-07-29T12:57:50;29.60;72.90
5919;DHT22;2985;48.142;16.344;2022-07-29T13:02:43;29.70;72.90
5919;DHT22;2985;48.142;16.344;2022-07-29T13:07:35;29.70;72.90
5919;DHT22;2985;48.142;16.344;2022-07-29T13:12:26;29.50;73.10
5919;DHT22;2985;48.142;16.344;2022-07-29T13:17:19;29.50;73.40
5919;DHT22;2985;48.142;16.344;2022-07-29T13:22:23;29.40;73.50
5919;DHT22;2985;48.142;16.344;2022-07-29T13:27:19;29.00;73.80
5919;DHT22;2985;48.142;16.344;2022-07-29T13:32:10;28.10;77.10
5919;DHT22;2985;48.142;16.344;2022-07-29T13:37:02;26.90;80.60
5919;DHT22;2985;48.142;16.344;2022-07-29T13:41:53;26.70;81.90
5919;DHT22;2985;48.142;16.344;2022-07-29T13:46:44;26.40;83.20
5919;DHT22;2985;48.142;16.344;2022-07-29T13:51:34;25.80;87.50
5919;DHT22;2985;48.142;16.344;2022-07-29T13:56:25;25.40;90.90
5919;DHT22;2985;48.142;16.344;2022-07-29T14:01:16;25.10;92.90
5919;DHT22;2985;48.142;16.344;2022-07-29T14:06:07;24.80;97.60
5919;DHT22;2985;48.142;16.344;2022-07-29T14:10:58;24.10;99.90
5919;DHT22;2985;48.142;16.344;2022-07-29T14:15:49;23.60;99.90
5919;DHT22;2985;48.142;16.344;2022-07-29T14:20:40;23.40;99.90
5919;DHT22;2985;48.142;16.344;2022-07-29T14:25:30;23.30;99.90
5919;DHT22;2985;48.142;16.344;2022-07-29T14:30:21;23.00;99.90
5919;DHT22;2985;48.142;16.344;2022-07-29T14:35:12;22.80;99.90
5919;DHT22;2985;48.142;16.344;2022-07-29T14:40:04;22.40;99.90
5919;DHT22;2985;48.142;16.344;2022-07-29T14:44:55;22.30;99.90
5919;DHT22;2985;48.142;16.344;2022-07-29T14:49:45;22.50;99.90
5919;DHT22;2985;48.142;16.344;2022-07-29T14:54:36;22.30;99.90
5919;DHT22;2985;48.142;16.344;2022-07-29T14:59:27;22.20;99.90
5919;DHT22;2985;48.142;16.344;2022-07-29T15:04:18;22.20;99.90
5919;DHT22;2985;48.142;16.344;2022-07-29T15:09:09;22.70;99.90
5919;DHT22;2985;48.142;16.344;2022-07-29T15:14:00;23.00;99.90
5919;DHT22;2985;48.142;16.344;2022-07-29T15:18:50;23.60;99.90
5919;DHT22;2985;48.142;16.344;2022-07-29T15:23:41;23.70;99.90
5919;DHT22;2985;48.142;16.344;2022-07-29T15:28:33;23.60;99.90
5919;DHT22;2985;48.142;16.344;2022-07-29T15:33:23;23.70;99.90
5919;DHT22;2985;48.142;16.344;2022-07-29T15:38:16;23.90;99.90
5919;DHT22;2985;48.142;16.344;2022-07-29T15:43:07;23.30;99.90
5919;DHT22;2985;48.142;16.344;2022-07-29T15:47:57;23.10;99.90
5919;DHT22;2985;48.142;16.344;2022-07-29T15:52:48;23.10;99.90
5919;DHT22;2985;48.142;16.344;2022-07-29T15:57:39;23.00;99.90
5919;DHT22;2985;48.142;16.344;2022-07-29T16:02:30;22.90;99.90
5919;DHT22;2985;48.142;16.344;2022-07-29T16:07:21;23.00;99.90
5919;DHT22;2985;48.142;16.344;2022-07-29T16:12:11;23.20;99.90
5919;DHT22;2985;48.142;16.344;2022-07-29T16:17:05;23.30;99.90
5919;DHT22;2985;48.142;16.344;2022-07-29T16:21:55;23.40;99.90
5919;DHT22;2985;48.142;16.344;2022-07-29T16:26:46;23.40;99.90
5919;DHT22;2985;48.142;16.344;2022-07-29T16:31:37;23.80;99.90
5919;DHT22;2985;48.142;16.344;2022-07-29T16:36:27;24.00;99.90
5919;DHT22;2985;48.142;16.344;2022-07-29T16:41:18;23.90;99.90
5919;DHT22;2985;48.142;16.344;2022-07-29T16:51:02;24.50;99.90
5919;DHT22;2985;48.142;16.344;2022-07-29T17:10:26;25.20;99.90
5919;DHT22;2985;48.142;16.344;2022-07-29T17:15:19;25.10;99.90
5919;DHT22;2985;48.142;16.344;2022-07-29T17:20:10;25.00;99.90
5919;DHT22;2985;48.142;16.344;2022-07-29T17:25:02;25.00;99.90
5919;DHT22;2985;48.142;16.344;2022-07-29T17:29:53;25.10;99.90
5919;DHT22;2985;48.142;16.344;2022-07-29T17:34:44;25.10;99.90
5919;DHT22;2985;48.142;16.344;2022-07-29T17:39:35;25.10;99.90
5919;DHT22;2985;48.142;16.344;2022-07-29T17:44:26;24.60;99.90
5919;DHT22;2985;48.142;16.344;2022-07-29T17:49:17;24.30;99.90
5919;DHT22;2985;48.142;16.344;2022-07-29T17:54:07;24.30;99.90
5919;DHT22;2985;48.142;16.344;2022-07-29T17:58:58;24.40;99.90
5919;DHT22;2985;48.142;16.344;2022-07-29T18:03:50;24.30;99.90
5919;DHT22;2985;48.142;16.344;2022-07-29T18:08:41;24.10;99.90
5919;DHT22;2985;48.142;16.344;2022-07-29T18:13:32;23.80;99.90
5919;DHT22;2985;48.142;16.344;2022-07-29T18:18:23;23.80;99.90
5919;DHT22;2985;48.142;16.344;2022-07-29T18:23:14;23.80;99.90
5919;DHT22;2985;48.142;16.344;2022-07-29T18:28:06;23.70;99.90
5919;DHT22;2985;48.142;16.344;2022-07-29T18:32:57;23.60;99.90
5919;DHT22;2985;48.142;16.344;2022-07-29T18:37:47;23.50;99.90
5919;DHT22;2985;48.142;16.344;2022-07-29T18:42:38;23.40;99.90
5919;DHT22;2985;48.142;16.344;2022-07-29T18:47:30;23.30;99.90
5919;DHT22;2985;48.142;16.344;2022-07-29T18:52:20;23.10;99.90
5919;DHT22;2985;48.142;16.344;2022-07-29T18:57:11;23.10;99.90
5919;DHT22;2985;48.142;16.344;2022-07-29T19:02:02;23.00;99.90
5919;DHT22;2985;48.142;16.344;2022-07-29T19:06:53;23.00;99.90
5919;DHT22;2985;48.142;16.344;2022-07-29T19:11:44;23.00;99.90
5919;DHT22;2985;48.142;16.344;2022-07-29T19:16:34;22.90;99.90
5919;DHT22;2985;48.142;16.344;2022-07-29T19:21:25;22.90;99.90
5919;DHT22;2985;48.142;16.344;2022-07-29T19:26:17;22.90;99.90
5919;DHT22;2985;48.142;16.344;2022-07-29T19:31:09;22.90;99.90
5919;DHT22;2985;48.142;16.344;2022-07-29T19:36:00;22.90;99.90
5919;DHT22;2985;48.142;16.344;2022-07-29T19:40:53;22.90;99.90
5919;DHT22;2985;48.142;16.344;2022-07-29T19:45:43;22.80;99.90
5919;DHT22;2985;48.142;16.344;2022-07-29T19:50:35;22.60;99.90
5919;DHT22;2985;48.142;16.344;2022-07-29T19:55:26;22.50;99.90
5919;DHT22;2985;48.142;16.344;2022-07-29T20:00:18;22.40;99.90
5919;DHT22;2985;48.142;16.344;2022-07-29T20:05:09;22.50;99.90
5919;DHT22;2985;48.142;16.344;2022-07-29T20:10:01;22.30;99.90
5919;DHT22;2985;48.142;16.344;2022-07-29T20:14:51;22.30;99.90
5919;DHT22;2985;48.142;16.344;2022-07-29T20:19:42;22.50;99.90
5919;DHT22;2985;48.142;16.344;2022-07-29T20:24:33;22.40;99.90
5919;DHT22;2985;48.142;16.344;2022-07-29T20:29:24;22.40;99.90
5919;DHT22;2985;48.142;16.344;2022-07-29T20:34:15;22.20;99.90
5919;DHT22;2985;48.142;16.344;2022-07-29T20:39:06;21.90;99.90
5919;DHT22;2985;48.142;16.344;2022-07-29T20:43:57;21.60;99.90
5919;DHT22;2985;48.142;16.344;2022-07-29T20:48:47;21.40;99.90
5919;DHT22;2985;48.142;16.344;2022-07-29T20:53:39;21.20;99.90
5919;DHT22;2985;48.142;16.344;2022-07-29T20:58:30;21.30;99.90
5919;DHT22;2985;48.142;16.344;2022-07-29T21:03:22;21.50;99.90
5919;DHT22;2985;48.142;16.344;2022-07-29T21:08:12;21.30;99.90
5919;DHT22;2985;48.142;16.344;2022-07-29T21:13:04;21.40;99.90
5919;DHT22;2985;48.142;16.344;2022-07-29T21:17:54;21.40;99.90
5919;DHT22;2985;48.142;16.344;2022-07-29T21:22:58;21.40;99.90
5919;DHT22;2985;48.142;16.344;2022-07-29T21:27:50;21.20;99.90
5919;DHT22;2985;48.142;16.344;2022-07-29T21:33:01;21.00;99.90
5919;DHT22;2985;48.142;16.344;2022-07-29T21:37:51;20.90;99.90
5919;DHT22;2985;48.142;16.344;2022-07-29T21:42:42;20.80;99.90
5919;DHT22;2985;48.142;16.344;2022-07-29T21:47:33;20.70;99.90
5919;DHT22;2985;48.142;16.344;2022-07-29T21:52:24;20.90;99.90
5919;DHT22;2985;48.142;16.344;2022-07-29T21:57:14;20.60;99.90
5919;DHT22;2985;48.142;16.344;2022-07-29T22:02:05;20.90;99.90
5919;DHT22;2985;48.142;16.344;2022-07-29T22:06:56;21.00;99.90
5919;DHT22;2985;48.142;16.344;2022-07-29T22:11:47;21.00;99.90
5919;DHT22;2985;48.142;16.344;2022-07-29T22:16:38;21.10;99.90
5919;DHT22;2985;48.142;16.344;2022-07-29T22:21:29;21.10;99.90
5919;DHT22;2985;48.142;16.344;2022-07-29T22:26:20;21.10;99.90
5919;DHT22;2985;48.142;16.344;2022-07-29T22:31:11;21.10;99.90
5919;DHT22;2985;48.142;16.344;2022-07-29T22:36:02;20.90;99.90
5919;DHT22;2985;48.142;16.344;2022-07-29T22:40:52;21.00;99.90
5919;DHT22;2985;48.142;16.344;2022-07-29T22:45:43;21.00;99.90
5919;DHT22;2985;48.142;16.344;2022-07-29T22:50:34;21.00;99.90
5919;DHT22;2985;48.142;16.344;2022-07-29T22:55:25;21.00;99.90
5919;DHT22;2985;48.142;16.344;2022-07-29T23:00:15;20.80;99.90
5919;DHT22;2985;48.142;16.344;2022-07-29T23:05:07;20.90;99.90
5919;DHT22;2985;48.142;16.344;2022-07-29T23:09:58;20.80;99.90
5919;DHT22;2985;48.142;16.344;2022-07-29T23:14:49;20.80;99.90
5919;DHT22;2985;48.142;16.344;2022-07-29T23:19:39;20.90;99.90
5919;DHT22;2985;48.142;16.344;2022-07-29T23:24:30;20.70;99.90
5919;DHT22;2985;48.142;16.344;2022-07-29T23:29:21;20.40;99.90
5919;DHT22;2985;48.142;16.344;2022-07-29T23:34:12;20.40;99.90
5919;DHT22;2985;48.142;16.344;2022-07-29T23:39:02;20.30;99.90
5919;DHT22;2985;48.142;16.344;2022-07-29T23:43:53;20.50;99.90
5919;DHT22;2985;48.142;16.344;2022-07-29T23:48:44;20.50;99.90
5919;DHT22;2985;48.142;16.344;2022-07-29T23:53:35;20.50;99.90
5919;DHT22;2985;48.142;16.344;2022-07-29T23:58:29;20.50;99.90
